sensor_id;sensor_type;location;lat;lon;timestamp;pressure;altitude;pressure_sealevel;temperature;humidity
53715;BME280;39608;55.630;37.864;2022-10-04T00:04:30;98317.16;;;11.88;64.81
53715;BME280;39608;55.630;37.864;2022-10-04T00:09:43;98319.28;;;11.82;64.77
53715;BME280;39608;55.630;37.864;2022-10-04T00:14:47;98312.63;;;11.79;64.55
53715;BME280;39608;55.630;37.864;2022-10-04T00:19:52;98324.59;;;11.78;64.60
53715;BME280;39608;55.630;37.864;2022-10-04T00:25:16;98335.53;;;11.91;64.62
53715;BME280;39608;55.630;37.864;2022-10-04T00:30:21;98342.22;;;11.72;65.01
53715;BME280;39608;55.630;37.864;2022-10-04T00:35:47;98333.47;;;11.88;64.85
53715;BME280;39608;55.630;37.864;2022-10-04T00:40:53;98346.41;;;11.70;65.07
53715;BME280;39608;55.630;37.864;2022-10-04T00:45:57;98353.44;;;12.13;63.95
53715;BME280;39608;55.630;37.864;2022-10-04T00:51:12;98332.81;;;11.91;64.43
53715;BME280;39608;55.630;37.864;2022-10-04T00:56:25;98351.44;;;11.80;64.79
53715;BME280;39608;55.630;37.864;2022-10-04T01:01:32;98352.44;;;11.75;64.90
53715;BME280;39608;55.630;37.864;2022-10-04T01:06:39;98345.06;;;11.76;65.10
53715;BME280;39608;55.630;37.864;2022-10-04T01:11:46;98356.09;;;11.79;64.69
53715;BME280;39608;55.630;37.864;2022-10-04T01:16:53;98355.25;;;11.58;65.44
53715;BME280;39608;55.630;37.864;2022-10-04T01:22:08;98360.78;;;11.70;65.24
53715;BME280;39608;55.630;37.864;2022-10-04T01:27:33;98364.69;;;11.81;64.92
53715;BME280;39608;55.630;37.864;2022-10-04T01:32:36;98362.03;;;11.52;65.50
53715;BME280;39608;55.630;37.864;2022-10-04T01:37:40;98345.47;;;11.44;65.54
53715;BME280;39608;55.630;37.864;2022-10-04T01:42:46;98365.63;;;11.35;65.90
53715;BME280;39608;55.630;37.864;2022-10-04T01:47:54;98374.13;;;11.24;66.20
53715;BME280;39608;55.630;37.864;2022-10-04T01:53:01;98376.53;;;11.26;65.91
53715;BME280;39608;55.630;37.864;2022-10-04T01:58:14;98371.31;;;11.12;66.26
53715;BME280;39608;55.630;37.864;2022-10-04T02:03:21;98381.59;;;10.98;66.90
53715;BME280;39608;55.630;37.864;2022-10-04T02:08:31;98379.53;;;10.94;66.36
53715;BME280;39608;55.630;37.864;2022-10-04T02:13:37;98384.00;;;10.99;66.43
53715;BME280;39608;55.630;37.864;2022-10-04T02:18:41;98376.69;;;10.91;66.58
53715;BME280;39608;55.630;37.864;2022-10-04T02:23:44;98378.00;;;10.85;66.87
53715;BME280;39608;55.630;37.864;2022-10-04T02:28:48;98387.41;;;10.87;66.72
53715;BME280;39608;55.630;37.864;2022-10-04T02:33:54;98387.88;;;10.81;66.85
53715;BME280;39608;55.630;37.864;2022-10-04T02:39:00;98395.88;;;10.86;66.95
53715;BME280;39608;55.630;37.864;2022-10-04T02:44:12;98389.28;;;10.87;66.99
53715;BME280;39608;55.630;37.864;2022-10-04T02:49:23;98398.75;;;10.81;67.88
53715;BME280;39608;55.630;37.864;2022-10-04T02:54:30;98400.00;;;10.83;67.34
53715;BME280;39608;55.630;37.864;2022-10-04T02:59:39;98398.09;;;10.84;67.38
53715;BME280;39608;55.630;37.864;2022-10-04T03:04:42;98412.75;;;10.83;67.20
53715;BME280;39608;55.630;37.864;2022-10-04T03:09:44;98417.22;;;10.78;67.33
53715;BME280;39608;55.630;37.864;2022-10-04T03:14:48;98415.97;;;10.85;67.53
53715;BME280;39608;55.630;37.864;2022-10-04T03:19:53;98409.09;;;10.78;67.25
53715;BME280;39608;55.630;37.864;2022-10-04T03:24:56;98413.75;;;10.78;67.56
53715;BME280;39608;55.630;37.864;2022-10-04T03:30:00;98415.66;;;10.77;67.48
53715;BME280;39608;55.630;37.864;2022-10-04T03:35:11;98424.75;;;10.82;67.58
53715;BME280;39608;55.630;37.864;2022-10-04T03:40:19;98426.84;;;10.76;68.04
53715;BME280;39608;55.630;37.864;2022-10-04T03:45:28;98428.09;;;10.78;67.62
53715;BME280;39608;55.630;37.864;2022-10-04T03:50:36;98421.09;;;10.69;67.79
53715;BME280;39608;55.630;37.864;2022-10-04T03:55:43;98422.53;;;10.75;67.59
53715;BME280;39608;55.630;37.864;2022-10-04T04:01:00;98434.13;;;10.84;67.67
53715;BME280;39608;55.630;37.864;2022-10-04T04:06:10;98435.91;;;10.80;68.09
53715;BME280;39608;55.630;37.864;2022-10-04T04:11:19;98432.41;;;10.79;67.77
53715;BME280;39608;55.630;37.864;2022-10-04T04:16:24;98440.69;;;10.74;68.13
53715;BME280;39608;55.630;37.864;2022-10-04T04:21:28;98446.31;;;10.69;68.26
53715;BME280;39608;55.630;37.864;2022-10-04T04:26:36;98449.97;;;10.73;68.17
53715;BME280;39608;55.630;37.864;2022-10-04T04:31:43;98454.91;;;10.71;68.21
53715;BME280;39608;55.630;37.864;2022-10-04T04:36:47;98463.69;;;10.68;68.18
53715;BME280;39608;55.630;37.864;2022-10-04T04:41:49;98459.38;;;10.67;68.42
53715;BME280;39608;55.630;37.864;2022-10-04T04:46:53;98453.78;;;10.72;68.47
53715;BME280;39608;55.630;37.864;2022-10-04T04:51:56;98462.88;;;10.76;68.35
53715;BME280;39608;55.630;37.864;2022-10-04T04:57:00;98460.78;;;10.82;68.49
53715;BME280;39608;55.630;37.864;2022-10-04T05:02:03;98469.84;;;10.95;68.20
53715;BME280;39608;55.630;37.864;2022-10-04T05:07:15;98472.25;;;11.05;68.16
53715;BME280;39608;55.630;37.864;2022-10-04T05:12:20;98475.25;;;11.12;67.96
53715;BME280;39608;55.630;37.864;2022-10-04T05:17:26;98471.25;;;11.10;68.12
53715;BME280;39608;55.630;37.864;2022-10-04T05:22:31;98473.97;;;11.10;68.05
53715;BME280;39608;55.630;37.864;2022-10-04T05:27:36;98484.09;;;11.39;67.56
53715;BME280;39608;55.630;37.864;2022-10-04T05:32:48;98474.63;;;11.54;67.26
53715;BME280;39608;55.630;37.864;2022-10-04T05:38:02;98481.34;;;11.78;67.02
53715;BME280;39608;55.630;37.864;2022-10-04T05:43:24;98491.66;;;11.93;66.33
53715;BME280;39608;55.630;37.864;2022-10-04T05:48:29;98490.72;;;11.89;66.34
53715;BME280;39608;55.630;37.864;2022-10-04T05:53:32;98477.13;;;11.89;66.12
53715;BME280;39608;55.630;37.864;2022-10-04T05:58:45;98480.53;;;12.07;65.99
53715;BME280;39608;55.630;37.864;2022-10-04T06:09:33;98506.50;;;12.26;65.26
53715;BME280;39608;55.630;37.864;2022-10-04T06:14:53;98490.53;;;12.45;65.02
53715;BME280;39608;55.630;37.864;2022-10-04T06:20:13;98499.44;;;12.67;64.34
53715;BME280;39608;55.630;37.864;2022-10-04T06:25:24;98510.31;;;12.67;63.74
53715;BME280;39608;55.630;37.864;2022-10-04T06:30:28;98505.81;;;13.05;63.73
53715;BME280;39608;55.630;37.864;2022-10-04T06:35:49;98500.44;;;12.83;63.46
53715;BME280;39608;55.630;37.864;2022-10-04T06:41:05;98514.06;;;12.96;62.88
53715;BME280;39608;55.630;37.864;2022-10-04T06:46:14;98501.34;;;12.88;62.18
53715;BME280;39608;55.630;37.864;2022-10-04T06:51:33;98521.38;;;13.04;62.04
53715;BME280;39608;55.630;37.864;2022-10-04T06:57:07;98517.75;;;13.12;61.90
53715;BME280;39608;55.630;37.864;2022-10-04T07:02:14;98502.06;;;12.97;61.11
53715;BME280;39608;55.630;37.864;2022-10-04T07:07:24;98510.59;;;13.08;60.72
53715;BME280;39608;55.630;37.864;2022-10-04T07:12:39;98524.56;;;13.18;60.65
53715;BME280;39608;55.630;37.864;2022-10-04T07:17:44;98516.31;;;13.27;59.64
53715;BME280;39608;55.630;37.864;2022-10-04T07:22:55;98513.44;;;13.45;59.85
53715;BME280;39608;55.630;37.864;2022-10-04T07:28:03;98496.28;;;13.57;59.58
53715;BME280;39608;55.630;37.864;2022-10-04T07:33:31;98512.09;;;13.76;58.50
53715;BME280;39608;55.630;37.864;2022-10-04T07:38:41;98517.75;;;13.95;57.97
53715;BME280;39608;55.630;37.864;2022-10-04T07:43:49;98505.59;;;14.05;57.07
53715;BME280;39608;55.630;37.864;2022-10-04T07:48:53;98511.94;;;14.09;56.42
53715;BME280;39608;55.630;37.864;2022-10-04T07:54:01;98502.84;;;14.30;56.36
53715;BME280;39608;55.630;37.864;2022-10-04T07:59:30;98509.84;;;14.43;55.81
53715;BME280;39608;55.630;37.864;2022-10-04T08:04:41;98495.50;;;14.46;54.93
53715;BME280;39608;55.630;37.864;2022-10-04T08:09:57;98497.06;;;14.88;53.83
53715;BME280;39608;55.630;37.864;2022-10-04T08:15:27;98489.75;;;15.84;53.81
53715;BME280;39608;55.630;37.864;2022-10-04T08:20:37;98507.50;;;16.10;51.27
53715;BME280;39608;55.630;37.864;2022-10-04T08:25:43;98510.66;;;16.48;52.39
53715;BME280;39608;55.630;37.864;2022-10-04T08:31:02;98497.47;;;16.34;51.55
53715;BME280;39608;55.630;37.864;2022-10-04T08:36:19;98528.53;;;16.41;50.13
53715;BME280;39608;55.630;37.864;2022-10-04T08:42:09;98514.84;;;16.06;51.22
53715;BME280;39608;55.630;37.864;2022-10-04T08:53:05;98523.41;;;15.56;50.80
53715;BME280;39608;55.630;37.864;2022-10-04T08:58:32;98520.94;;;15.51;51.19
53715;BME280;39608;55.630;37.864;2022-10-04T09:04:25;98529.06;;;15.48;51.16
53715;BME280;39608;55.630;37.864;2022-10-04T09:15:27;98518.63;;;15.37;50.84
53715;BME280;39608;55.630;37.864;2022-10-04T09:20:49;98512.34;;;16.17;50.12
53715;BME280;39608;55.630;37.864;2022-10-04T09:26:04;98475.63;;;17.16;48.62
53715;BME280;39608;55.630;37.864;2022-10-04T09:31:30;98514.03;;;17.89;47.66
53715;BME280;39608;55.630;37.864;2022-10-04T09:36:51;98501.97;;;17.93;46.74
53715;BME280;39608;55.630;37.864;2022-10-04T09:42:25;98512.59;;;17.72;47.14
53715;BME280;39608;55.630;37.864;2022-10-04T09:47:42;98513.22;;;16.96;47.20
53715;BME280;39608;55.630;37.864;2022-10-04T09:52:48;98476.19;;;16.43;47.69
53715;BME280;39608;55.630;37.864;2022-10-04T09:58:30;98507.28;;;16.35;48.53
53715;BME280;39608;55.630;37.864;2022-10-04T10:04:05;98512.75;;;16.35;48.78
53715;BME280;39608;55.630;37.864;2022-10-04T10:09:20;98505.28;;;16.16;48.33
53715;BME280;39608;55.630;37.864;2022-10-04T10:15:03;98496.97;;;16.28;48.28
53715;BME280;39608;55.630;37.864;2022-10-04T10:20:37;98492.53;;;16.98;47.76
53715;BME280;39608;55.630;37.864;2022-10-04T10:26:01;98488.06;;;16.70;47.00
53715;BME280;39608;55.630;37.864;2022-10-04T10:31:25;98495.69;;;16.41;47.62
53715;BME280;39608;55.630;37.864;2022-10-04T10:36:44;98480.19;;;16.30;48.14
53715;BME280;39608;55.630;37.864;2022-10-04T10:42:04;98482.38;;;16.04;48.20
53715;BME280;39608;55.630;37.864;2022-10-04T10:47:20;98529.69;;;15.41;52.43
53715;BME280;39608;55.630;37.864;2022-10-04T10:58:35;98623.31;;;13.28;60.30
53715;BME280;39608;55.630;37.864;2022-10-04T11:09:31;98663.34;;;11.78;67.29
53715;BME280;39608;55.630;37.864;2022-10-04T11:14:54;98654.69;;;11.85;67.80
53715;BME280;39608;55.630;37.864;2022-10-04T11:25:55;98671.53;;;11.43;65.47
53715;BME280;39608;55.630;37.864;2022-10-04T11:31:30;98684.03;;;11.26;64.71
53715;BME280;39608;55.630;37.864;2022-10-04T11:36:46;98687.81;;;10.82;66.52
53715;BME280;39608;55.630;37.864;2022-10-04T11:41:59;98680.28;;;10.70;66.64
53715;BME280;39608;55.630;37.864;2022-10-04T11:47:10;98703.28;;;10.72;65.99
53715;BME280;39608;55.630;37.864;2022-10-04T11:52:51;98688.44;;;10.78;65.97
53715;BME280;39608;55.630;37.864;2022-10-04T11:58:12;98697.72;;;10.77;66.64
53715;BME280;39608;55.630;37.864;2022-10-04T12:03:41;98709.06;;;10.97;65.86
53715;BME280;39608;55.630;37.864;2022-10-04T12:08:59;98711.28;;;11.04;65.94
53715;BME280;39608;55.630;37.864;2022-10-04T12:14:18;98714.22;;;11.25;66.02
53715;BME280;39608;55.630;37.864;2022-10-04T12:19:43;98711.47;;;11.42;65.90
53715;BME280;39608;55.630;37.864;2022-10-04T12:25:13;98735.44;;;11.40;65.63
53715;BME280;39608;55.630;37.864;2022-10-04T12:30:38;98734.16;;;11.38;65.86
53715;BME280;39608;55.630;37.864;2022-10-04T12:35:55;98752.22;;;11.34;65.66
53715;BME280;39608;55.630;37.864;2022-10-04T12:41:05;98751.06;;;11.26;66.06
53715;BME280;39608;55.630;37.864;2022-10-04T12:46:22;98765.28;;;11.32;65.73
53715;BME280;39608;55.630;37.864;2022-10-04T12:51:35;98751.88;;;11.44;65.46
53715;BME280;39608;55.630;37.864;2022-10-04T12:56:46;98749.97;;;11.44;65.20
53715;BME280;39608;55.630;37.864;2022-10-04T13:01:57;98768.16;;;11.44;65.51
53715;BME280;39608;55.630;37.864;2022-10-04T13:07:30;98768.84;;;11.58;64.75
53715;BME280;39608;55.630;37.864;2022-10-04T13:12:57;98770.59;;;11.54;64.18
53715;BME280;39608;55.630;37.864;2022-10-04T13:18:11;98771.84;;;11.57;63.74
53715;BME280;39608;55.630;37.864;2022-10-04T13:23:30;98787.97;;;11.71;63.33
53715;BME280;39608;55.630;37.864;2022-10-04T13:28:41;98787.53;;;11.60;63.60
53715;BME280;39608;55.630;37.864;2022-10-04T13:33:50;98786.06;;;11.62;63.30
53715;BME280;39608;55.630;37.864;2022-10-04T13:39:14;98781.59;;;11.58;63.37
53715;BME280;39608;55.630;37.864;2022-10-04T13:44:34;98773.78;;;11.47;62.93
53715;BME280;39608;55.630;37.864;2022-10-04T13:50:00;98780.13;;;11.43;63.06
53715;BME280;39608;55.630;37.864;2022-10-04T13:55:18;98781.59;;;11.49;62.93
53715;BME280;39608;55.630;37.864;2022-10-04T14:00:54;98785.88;;;11.41;63.02
53715;BME280;39608;55.630;37.864;2022-10-04T14:06:23;98780.13;;;11.43;62.76
53715;BME280;39608;55.630;37.864;2022-10-04T14:17:11;98778.88;;;11.40;62.80
53715;BME280;39608;55.630;37.864;2022-10-04T14:22:48;98787.03;;;11.40;62.91
53715;BME280;39608;55.630;37.864;2022-10-04T14:34:21;98787.16;;;11.35;63.26
53715;BME280;39608;55.630;37.864;2022-10-04T14:39:48;98796.44;;;11.34;63.50
53715;BME280;39608;55.630;37.864;2022-10-04T14:45:19;98796.59;;;11.29;63.68
53715;BME280;39608;55.630;37.864;2022-10-04T14:50:26;98789.56;;;11.19;63.66
53715;BME280;39608;55.630;37.864;2022-10-04T14:56:02;98798.22;;;11.39;63.20
53715;BME280;39608;55.630;37.864;2022-10-04T15:01:17;98808.25;;;11.29;63.35
53715;BME280;39608;55.630;37.864;2022-10-04T15:06:28;98812.06;;;11.28;63.72
53715;BME280;39608;55.630;37.864;2022-10-04T15:11:43;98815.56;;;11.20;63.81
53715;BME280;39608;55.630;37.864;2022-10-04T15:16:55;98825.16;;;11.26;63.62
53715;BME280;39608;55.630;37.864;2022-10-04T15:22:05;98824.06;;;11.36;63.43
53715;BME280;39608;55.630;37.864;2022-10-04T15:33:07;98835.91;;;11.49;63.44
53715;BME280;39608;55.630;37.864;2022-10-04T15:38:21;98831.56;;;11.39;63.70
53715;BME280;39608;55.630;37.864;2022-10-04T15:43:26;98843.88;;;11.37;63.75
53715;BME280;39608;55.630;37.864;2022-10-04T15:48:57;98843.72;;;11.51;63.79
53715;BME280;39608;55.630;37.864;2022-10-04T15:54:30;98851.69;;;11.38;63.77
53715;BME280;39608;55.630;37.864;2022-10-04T15:59:44;98840.69;;;11.35;63.62
53715;BME280;39608;55.630;37.864;2022-10-04T16:04:58;98839.72;;;11.39;63.37
53715;BME280;39608;55.630;37.864;2022-10-04T16:10:23;98838.63;;;11.40;63.31
53715;BME280;39608;55.630;37.864;2022-10-04T16:15:30;98835.72;;;11.28;62.79
53715;BME280;39608;55.630;37.864;2022-10-04T16:26:10;98839.53;;;11.27;62.54
53715;BME280;39608;55.630;37.864;2022-10-04T16:31:44;98835.59;;;11.51;62.38
53715;BME280;39608;55.630;37.864;2022-10-04T16:36:51;98831.56;;;11.30;62.06
53715;BME280;39608;55.630;37.864;2022-10-04T16:41:58;98839.88;;;11.34;61.96
53715;BME280;39608;55.630;37.864;2022-10-04T16:47:19;98854.25;;;11.43;61.85
53715;BME280;39608;55.630;37.864;2022-10-04T16:52:37;98841.97;;;11.46;61.22
53715;BME280;39608;55.630;37.864;2022-10-04T17:03:25;98835.25;;;11.43;60.42
53715;BME280;39608;55.630;37.864;2022-10-04T17:08:59;98837.66;;;11.54;60.57
53715;BME280;39608;55.630;37.864;2022-10-04T17:14:30;98833.50;;;11.56;60.35
53715;BME280;39608;55.630;37.864;2022-10-04T17:19:40;98820.06;;;11.42;60.42
53715;BME280;39608;55.630;37.864;2022-10-04T17:24:53;98829.03;;;11.52;60.04
53715;BME280;39608;55.630;37.864;2022-10-04T17:30:10;98824.53;;;11.47;60.17
53715;BME280;39608;55.630;37.864;2022-10-04T17:40:46;98837.78;;;11.31;59.84
53715;BME280;39608;55.630;37.864;2022-10-04T17:46:01;98840.69;;;11.35;60.02
53715;BME280;39608;55.630;37.864;2022-10-04T17:51:13;98833.78;;;11.37;59.94
53715;BME280;39608;55.630;37.864;2022-10-04T17:56:41;98845.41;;;11.20;61.04
53715;BME280;39608;55.630;37.864;2022-10-04T18:01:46;98853.16;;;10.55;63.22
53715;BME280;39608;55.630;37.864;2022-10-04T18:06:57;98859.91;;;10.35;64.39
53715;BME280;39608;55.630;37.864;2022-10-04T18:12:08;98837.44;;;10.21;64.82
53715;BME280;39608;55.630;37.864;2022-10-04T18:17:21;98850.44;;;10.33;64.43
53715;BME280;39608;55.630;37.864;2022-10-04T18:22:41;98843.00;;;10.38;64.79
53715;BME280;39608;55.630;37.864;2022-10-04T18:27:49;98840.38;;;10.33;64.92
53715;BME280;39608;55.630;37.864;2022-10-04T18:32:54;98844.81;;;10.29;64.84
53715;BME280;39608;55.630;37.864;2022-10-04T18:38:23;98840.78;;;10.40;64.66
53715;BME280;39608;55.630;37.864;2022-10-04T18:43:32;98843.22;;;10.28;64.99
53715;BME280;39608;55.630;37.864;2022-10-04T18:48:39;98847.84;;;10.27;65.03
53715;BME280;39608;55.630;37.864;2022-10-04T18:53:48;98853.25;;;10.27;64.99
53715;BME280;39608;55.630;37.864;2022-10-04T18:59:07;98845.34;;;10.31;64.49
53715;BME280;39608;55.630;37.864;2022-10-04T19:04:45;98847.72;;;10.33;64.42
53715;BME280;39608;55.630;37.864;2022-10-04T19:10:04;98858.38;;;10.29;65.09
53715;BME280;39608;55.630;37.864;2022-10-04T19:15:21;98851.66;;;10.26;64.66
53715;BME280;39608;55.630;37.864;2022-10-04T19:20:30;98854.78;;;10.20;64.34
53715;BME280;39608;55.630;37.864;2022-10-04T19:25:38;98853.53;;;10.17;64.38
53715;BME280;39608;55.630;37.864;2022-10-04T19:31:03;98857.03;;;10.18;64.40
53715;BME280;39608;55.630;37.864;2022-10-04T19:36:19;98864.78;;;10.10;64.18
53715;BME280;39608;55.630;37.864;2022-10-04T19:41:46;98858.38;;;10.06;64.33
53715;BME280;39608;55.630;37.864;2022-10-04T19:46:54;98856.66;;;9.88;64.65
53715;BME280;39608;55.630;37.864;2022-10-04T19:52:14;98846.13;;;9.86;64.51
53715;BME280;39608;55.630;37.864;2022-10-04T19:57:30;98862.66;;;9.85;64.77
53715;BME280;39608;55.630;37.864;2022-10-04T20:02:34;98856.50;;;9.70;64.99
53715;BME280;39608;55.630;37.864;2022-10-04T20:07:36;98849.59;;;9.64;65.19
53715;BME280;39608;55.630;37.864;2022-10-04T20:12:41;98849.41;;;9.61;65.68
53715;BME280;39608;55.630;37.864;2022-10-04T20:17:45;98844.59;;;9.57;65.25
53715;BME280;39608;55.630;37.864;2022-10-04T20:22:55;98852.88;;;9.61;65.36
53715;BME280;39608;55.630;37.864;2022-10-04T20:28:02;98849.31;;;9.52;65.99
53715;BME280;39608;55.630;37.864;2022-10-04T20:33:04;98853.91;;;9.51;65.34
53715;BME280;39608;55.630;37.864;2022-10-04T20:38:13;98851.22;;;9.51;65.62
53715;BME280;39608;55.630;37.864;2022-10-04T20:43:26;98858.53;;;9.51;65.62
53715;BME280;39608;55.630;37.864;2022-10-04T20:48:28;98854.25;;;9.36;65.92
53715;BME280;39608;55.630;37.864;2022-10-04T20:53:32;98853.84;;;9.29;65.95
53715;BME280;39608;55.630;37.864;2022-10-04T20:58:36;98855.38;;;9.35;66.16
53715;BME280;39608;55.630;37.864;2022-10-04T21:03:40;98847.97;;;9.27;65.94
53715;BME280;39608;55.630;37.864;2022-10-04T21:08:43;98840.53;;;9.32;65.72
53715;BME280;39608;55.630;37.864;2022-10-04T21:13:56;98847.25;;;9.35;65.99
53715;BME280;39608;55.630;37.864;2022-10-04T21:24:53;98842.63;;;9.35;66.41
53715;BME280;39608;55.630;37.864;2022-10-04T21:29:57;98841.31;;;9.33;66.09
53715;BME280;39608;55.630;37.864;2022-10-04T21:35:00;98844.94;;;9.28;66.13
53715;BME280;39608;55.630;37.864;2022-10-04T21:40:05;98827.50;;;9.20;66.61
53715;BME280;39608;55.630;37.864;2022-10-04T21:45:09;98846.13;;;9.36;66.16
53715;BME280;39608;55.630;37.864;2022-10-04T21:50:11;98842.94;;;9.34;66.14
53715;BME280;39608;55.630;37.864;2022-10-04T21:55:13;98836.44;;;9.35;66.21
53715;BME280;39608;55.630;37.864;2022-10-04T22:00:17;98837.72;;;9.37;66.12
53715;BME280;39608;55.630;37.864;2022-10-04T22:05:19;98833.50;;;9.31;66.70
53715;BME280;39608;55.630;37.864;2022-10-04T22:10:21;98826.69;;;9.34;66.11
53715;BME280;39608;55.630;37.864;2022-10-04T22:15:26;98835.28;;;9.50;66.31
53715;BME280;39608;55.630;37.864;2022-10-04T22:20:28;98828.28;;;9.49;65.91
53715;BME280;39608;55.630;37.864;2022-10-04T22:25:30;98832.41;;;9.46;65.77
53715;BME280;39608;55.630;37.864;2022-10-04T22:30:34;98834.09;;;9.42;66.08
53715;BME280;39608;55.630;37.864;2022-10-04T22:35:36;98842.84;;;9.39;66.02
53715;BME280;39608;55.630;37.864;2022-10-04T22:40:38;98838.53;;;9.38;66.12
53715;BME280;39608;55.630;37.864;2022-10-04T22:45:41;98838.72;;;9.41;66.23
53715;BME280;39608;55.630;37.864;2022-10-04T22:50:44;98829.88;;;9.36;66.48
53715;BME280;39608;55.630;37.864;2022-10-04T22:55:46;98832.31;;;9.37;66.53
53715;BME280;39608;55.630;37.864;2022-10-04T23:00:50;98828.47;;;9.38;66.89
53715;BME280;39608;55.630;37.864;2022-10-04T23:05:52;98822.06;;;9.34;66.73
53715;BME280;39608;55.630;37.864;2022-10-04T23:10:54;98833.22;;;9.33;66.61
53715;BME280;39608;55.630;37.864;2022-10-04T23:16:01;98829.88;;;9.36;66.59
53715;BME280;39608;55.630;37.864;2022-10-04T23:21:18;98813.84;;;9.39;66.38
53715;BME280;39608;55.630;37.864;2022-10-04T23:26:23;98817.78;;;9.33;66.76
53715;BME280;39608;55.630;37.864;2022-10-04T23:31:27;98815.88;;;9.34;66.68
53715;BME280;39608;55.630;37.864;2022-10-04T23:36:30;98826.09;;;9.37;67.00
53715;BME280;39608;55.630;37.864;2022-10-04T23:41:32;98815.41;;;9.32;66.53
53715;BME280;39608;55.630;37.864;2022-10-04T23:46:35;98825.59;;;9.35;66.73
53715;BME280;39608;55.630;37.864;2022-10-04T23:51:37;98817.28;;;9.31;66.95
53715;BME280;39608;55.630;37.864;2022-10-04T23:56:42;98817.28;;;9.31;67.29
